In Rescue
 
Open Full Screen Window  High Contrast Mode
Wind Gusting 18 knots
10
October 25, 2021 5:09 PM EDT
Weather Information
Wind Direction
  010 °
Wind Speed
  10 kt (12 mph)
Wind Gust
  18 kt (21 mph)
Altimeter
29.81 in
Visibility
7 SM
Temperature
08° C
46° F
Dewpoint
07° C
45° F
Humidity
93%
Sky Condition
Overcast @ 1,100 ft
MVFR

METAR KOEB 252109Z AUTO 01010G18KT 7SM OVC011 08/07 A2981 RMK AO2 T00830068

FAA Disclaimer: The data displayed is for advisory purposes only and is not to be used for flight planning or operations.